createdAt,value
2023-03-16T00:00:05.108Z,2.40
2023-03-16T00:02:32.104Z,2.08
2023-03-16T00:04:59.067Z,2.50
2023-03-16T00:07:26.145Z,2.30
2023-03-16T00:09:54.624Z,2.00
2023-03-16T00:12:22.655Z,2.45
2023-03-16T00:14:50.040Z,2.28
2023-03-16T00:17:20.530Z,2.28
2023-03-16T00:19:55.180Z,2.63
2023-03-16T00:22:26.367Z,2.03
2023-03-16T00:24:53.710Z,2.20
2023-03-16T00:27:23.792Z,2.20
2023-03-16T00:29:56.120Z,2.33
2023-03-16T00:32:31.989Z,2.25
2023-03-16T00:34:59.508Z,2.05
2023-03-16T00:37:27.967Z,2.45
2023-03-16T00:39:58.750Z,2.08
2023-03-16T00:42:29.428Z,2.00
2023-03-16T00:45:01.684Z,2.53
2023-03-16T00:47:32.838Z,2.10
2023-03-16T00:50:01.444Z,2.38
2023-03-16T00:52:30.137Z,2.17
2023-03-16T00:54:58.191Z,2.13
2023-03-16T00:57:27.829Z,2.45
2023-03-16T00:59:56.519Z,2.58
2023-03-16T01:02:24.851Z,2.80
2023-03-16T01:04:54.529Z,3.08
2023-03-16T01:07:22.232Z,2.10
2023-03-16T01:09:49.335Z,2.05
2023-03-16T01:12:19.366Z,2.47
2023-03-16T01:14:46.475Z,2.63
2023-03-16T01:17:14.579Z,2.38
2023-03-16T01:19:43.762Z,2.53
2023-03-16T01:22:12.230Z,2.72
2023-03-16T01:24:41.056Z,2.17
2023-03-16T01:27:09.202Z,2.92
2023-03-16T01:29:40.074Z,2.55
2023-03-16T01:32:08.016Z,2.10
2023-03-16T01:34:35.407Z,2.78
2023-03-16T01:37:03.851Z,3.00
2023-03-16T01:39:40.053Z,2.25
2023-03-16T01:42:07.978Z,2.55
2023-03-16T01:45:47.865Z,2.47
2023-03-16T01:48:15.573Z,2.22
2023-03-16T01:50:43.271Z,2.65
2023-03-16T01:53:11.711Z,2.53
2023-03-16T01:55:38.745Z,2.78
2023-03-16T01:58:06.502Z,2.30
2023-03-16T02:00:33.989Z,2.45
2023-03-16T02:03:16.136Z,2.22
2023-03-16T02:06:16.133Z,4.15
2023-03-16T02:08:49.536Z,2.75
2023-03-16T02:11:19.966Z,2.53
2023-03-16T02:13:58.881Z,2.92
2023-03-16T02:16:26.888Z,2.70
2023-03-16T02:18:53.973Z,2.63
2023-03-16T02:21:34.126Z,2.90
2023-03-16T02:24:04.440Z,2.50
2023-03-16T02:26:53.582Z,2.17
2023-03-16T02:29:59.760Z,2.63
2023-03-16T02:32:31.157Z,2.78
2023-03-16T02:35:00.029Z,2.22
2023-03-16T02:37:27.692Z,2.42
2023-03-16T02:39:54.934Z,3.30
2023-03-16T02:42:26.888Z,2.40
2023-03-16T02:45:01.147Z,2.22
2023-03-16T02:47:43.762Z,4.22
2023-03-16T02:50:12.423Z,2.35
2023-03-16T02:52:40.054Z,2.47
2023-03-16T02:55:08.893Z,3.15
2023-03-16T02:57:36.063Z,2.63
2023-03-16T03:00:14.352Z,3.33
2023-03-16T03:02:41.998Z,2.60
2023-03-16T03:05:09.383Z,2.95
2023-03-16T03:07:37.335Z,2.13
2023-03-16T03:10:07.541Z,2.80
2023-03-16T03:12:35.097Z,2.78
2023-03-16T03:15:06.936Z,3.00
2023-03-16T03:20:18.425Z,2.53
2023-03-16T03:22:48.570Z,2.78
2023-03-16T03:25:18.323Z,2.63
2023-03-16T03:27:46.686Z,2.70
2023-03-16T03:30:21.096Z,2.88
2023-03-16T03:32:48.806Z,2.50
2023-03-16T03:35:18.617Z,2.50
2023-03-16T03:37:46.027Z,2.88
2023-03-16T03:40:17.418Z,3.15
2023-03-16T03:42:48.092Z,2.67
2023-03-16T03:45:16.415Z,2.90
2023-03-16T03:47:44.466Z,2.40
2023-03-16T03:50:16.607Z,2.47
2023-03-16T03:52:57.038Z,2.83
2023-03-16T03:55:24.517Z,2.60
2023-03-16T03:57:51.472Z,2.58
2023-03-16T04:00:20.914Z,2.50
2023-03-16T04:02:48.658Z,2.58
2023-03-16T04:05:27.608Z,2.30
2023-03-16T04:07:57.511Z,2.90
2023-03-16T04:10:29.274Z,2.47
2023-03-16T04:12:58.352Z,3.28
2023-03-16T04:15:27.575Z,2.42
2023-03-16T04:18:04.132Z,3.45
2023-03-16T04:20:31.370Z,3.08
2023-03-16T04:22:58.645Z,2.90
2023-03-16T04:25:27.586Z,2.80
2023-03-16T04:27:55.004Z,2.97
2023-03-16T04:30:25.811Z,3.20
2023-03-16T04:32:59.100Z,2.20
2023-03-16T04:35:26.246Z,2.70
2023-03-16T04:37:56.478Z,2.70
2023-03-16T04:40:32.751Z,3.40
2023-03-16T04:43:14.274Z,2.67
2023-03-16T04:45:42.361Z,3.80
2023-03-16T04:48:10.483Z,3.00
2023-03-16T04:50:38.609Z,4.40
2023-03-16T04:53:05.968Z,2.60
2023-03-16T04:55:33.590Z,3.83
2023-03-16T04:58:02.054Z,2.92
2023-03-16T05:00:33.583Z,2.95
2023-03-16T05:03:10.355Z,3.35
2023-03-16T05:05:39.236Z,3.10
2023-03-16T05:08:07.421Z,3.45
2023-03-16T05:10:36.880Z,2.78
2023-03-16T05:13:04.288Z,3.38
2023-03-16T05:15:31.781Z,3.22
2023-03-16T05:18:03.402Z,3.03
2023-03-16T05:20:31.455Z,3.65
2023-03-16T05:23:01.233Z,2.97
2023-03-16T05:25:34.644Z,3.58
2023-03-16T05:28:05.507Z,3.80
2023-03-16T05:30:44.891Z,3.55
2023-03-16T05:33:15.940Z,3.38
2023-03-16T05:35:44.828Z,2.58
2023-03-16T05:38:13.675Z,2.90
2023-03-16T05:40:43.811Z,2.97
2023-03-16T05:43:18.101Z,3.35
2023-03-16T05:45:49.750Z,2.75
2023-03-16T05:48:18.773Z,3.25
2023-03-16T05:50:50.912Z,4.25
2023-03-16T05:53:21.002Z,3.28
2023-03-16T05:55:54.440Z,3.40
2023-03-16T05:58:21.779Z,2.55
2023-03-16T06:00:52.710Z,2.92
2023-03-16T06:03:24.963Z,3.10
2023-03-16T06:05:53.723Z,3.03
2023-03-16T06:08:28.675Z,3.73
2023-03-16T06:11:01.736Z,2.78
2023-03-16T06:13:28.801Z,2.45
2023-03-16T06:15:55.976Z,3.05
2023-03-16T06:18:23.090Z,3.03
2023-03-16T06:20:50.140Z,3.83
2023-03-16T06:23:20.233Z,2.75
2023-03-16T06:25:48.935Z,2.85
2023-03-16T06:28:17.755Z,3.03
2023-03-16T06:30:44.727Z,2.50
2023-03-16T06:33:11.801Z,2.92
2023-03-16T06:35:38.984Z,2.70
2023-03-16T06:38:21.967Z,2.85
2023-03-16T06:43:24.729Z,3.08
2023-03-16T06:45:52.859Z,2.72
2023-03-16T06:48:21.104Z,2.95
2023-03-16T06:50:48.381Z,2.55
2023-03-16T06:53:22.221Z,2.40
2023-03-16T06:55:49.965Z,2.17
2023-03-16T06:58:17.505Z,2.70
2023-03-16T07:00:45.545Z,2.95
2023-03-16T07:03:12.827Z,2.95
2023-03-16T07:05:46.882Z,3.10
2023-03-16T07:08:15.166Z,2.80
2023-03-16T07:10:42.471Z,2.75
2023-03-16T07:13:09.565Z,2.90
2023-03-16T07:15:36.644Z,2.80
2023-03-16T07:18:05.994Z,2.95
2023-03-16T07:20:33.164Z,4.13
2023-03-16T07:23:05.116Z,3.22
2023-03-16T07:25:32.969Z,2.97
2023-03-16T07:28:00.504Z,3.45
2023-03-16T07:30:33.006Z,3.13
2023-03-16T07:33:01.849Z,2.95
2023-03-16T07:35:33.356Z,2.95
2023-03-16T07:38:01.532Z,3.10
2023-03-16T07:40:28.900Z,3.45
2023-03-16T07:43:04.326Z,2.80
2023-03-16T07:45:36.336Z,3.08
2023-03-16T07:48:04.826Z,3.00
2023-03-16T07:50:39.856Z,3.08
2023-03-16T07:53:07.297Z,3.58
2023-03-16T07:55:39.036Z,3.13
2023-03-16T07:58:10.356Z,3.47
2023-03-16T08:00:40.546Z,3.05
2023-03-16T08:03:07.648Z,3.60
2023-03-16T08:05:35.077Z,2.83
2023-03-16T08:08:09.674Z,3.10
2023-03-16T08:10:37.964Z,3.13
2023-03-16T08:13:12.446Z,2.75
2023-03-16T08:15:46.467Z,2.72
2023-03-16T08:18:23.798Z,3.53
2023-03-16T08:20:52.172Z,3.63
2023-03-16T08:23:19.674Z,3.25
2023-03-16T08:25:47.924Z,2.97
2023-03-16T08:28:17.674Z,3.58
2023-03-16T08:30:50.955Z,4.05
2023-03-16T08:33:36.863Z,3.28
2023-03-16T08:36:10.037Z,4.38
2023-03-16T08:38:38.693Z,3.53
2023-03-16T08:41:09.071Z,4.00
2023-03-16T08:43:37.478Z,3.88
2023-03-16T08:46:05.675Z,3.38
2023-03-16T08:48:44.335Z,4.60
2023-03-16T08:51:11.813Z,3.65
2023-03-16T08:53:39.234Z,3.38
2023-03-16T08:56:12.678Z,3.67
2023-03-16T08:58:45.351Z,3.25
2023-03-16T09:01:20.556Z,3.92
2023-03-16T09:03:47.992Z,3.70
2023-03-16T09:06:17.528Z,3.60
2023-03-16T09:08:47.956Z,4.70
2023-03-16T09:11:18.889Z,3.03
2023-03-16T09:13:47.308Z,3.67
2023-03-16T09:16:16.320Z,3.15
2023-03-16T09:18:43.614Z,2.83
2023-03-16T09:21:13.953Z,3.38
2023-03-16T09:23:43.105Z,3.28
2023-03-16T09:26:12.641Z,2.83
2023-03-16T09:28:42.253Z,3.40
2023-03-16T09:31:17.469Z,3.35
2023-03-16T09:33:45.031Z,3.58
2023-03-16T09:36:13.668Z,2.72
2023-03-16T09:38:42.515Z,4.22
2023-03-16T09:41:39.510Z,3.08
2023-03-16T09:44:48.384Z,2.83
2023-03-16T09:47:16.861Z,3.00
2023-03-16T09:49:49.543Z,2.75
2023-03-16T09:52:51.833Z,3.38
2023-03-16T09:55:34.023Z,2.80
2023-03-16T09:58:05.793Z,2.92
2023-03-16T10:00:42.118Z,3.55
2023-03-16T10:03:41.719Z,2.67
2023-03-16T10:06:13.875Z,3.67
2023-03-16T10:08:52.201Z,2.80
2023-03-16T10:11:25.623Z,2.67
2023-03-16T10:14:23.511Z,2.38
2023-03-16T10:17:26.808Z,2.83
2023-03-16T10:19:58.154Z,2.97
2023-03-16T10:22:37.644Z,2.50
2023-03-16T10:25:20.972Z,2.85
2023-03-16T10:27:48.831Z,3.13
2023-03-16T10:30:28.677Z,2.90
2023-03-16T10:33:01.430Z,2.60
2023-03-16T10:36:19.496Z,2.78
2023-03-16T10:38:58.187Z,2.28
2023-03-16T10:41:37.320Z,2.85
2023-03-16T10:44:25.652Z,2.10
2023-03-16T10:47:08.150Z,2.20
2023-03-16T10:49:42.218Z,2.60
2023-03-16T10:52:34.952Z,2.38
2023-03-16T10:55:18.048Z,2.10
2023-03-16T10:57:53.683Z,2.88
2023-03-16T11:00:43.462Z,2.47
2023-03-16T11:03:22.931Z,2.13
2023-03-16T11:06:02.466Z,2.30
2023-03-16T11:08:48.831Z,2.40
2023-03-16T11:11:27.593Z,2.42
2023-03-16T11:13:59.644Z,2.17
2023-03-16T11:16:37.886Z,2.20
2023-03-16T11:19:29.830Z,2.00
2023-03-16T11:22:06.515Z,2.17
2023-03-16T11:24:49.672Z,2.83
2023-03-16T11:27:43.595Z,2.92
2023-03-16T11:30:25.081Z,2.58
2023-03-16T11:32:54.283Z,2.22
2023-03-16T11:35:39.909Z,2.20
2023-03-16T11:38:33.560Z,2.10
2023-03-16T11:41:05.965Z,2.47
2023-03-16T11:43:55.890Z,2.35
2023-03-16T11:46:36.926Z,2.67
2023-03-16T11:49:34.348Z,2.63
2023-03-16T11:52:32.096Z,2.67
2023-03-16T11:55:17.556Z,2.40
2023-03-16T11:57:53.999Z,3.30
2023-03-16T12:00:49.301Z,2.28
2023-03-16T12:04:02.186Z,2.63
2023-03-16T12:06:53.359Z,2.80
2023-03-16T12:09:37.437Z,2.30
2023-03-16T12:12:37.760Z,3.67
2023-03-16T12:15:45.025Z,2.38
2023-03-16T12:18:23.451Z,2.00
2023-03-16T12:20:56.428Z,2.88
2023-03-16T12:23:52.491Z,2.92
2023-03-16T12:26:30.120Z,3.78
2023-03-16T12:29:00.699Z,2.20
2023-03-16T12:31:49.337Z,2.55
2023-03-16T12:34:25.938Z,2.45
2023-03-16T12:37:22.124Z,2.08
2023-03-16T12:40:15.723Z,2.35
2023-03-16T12:43:13.101Z,2.42
2023-03-16T12:45:55.035Z,2.22
2023-03-16T12:48:34.290Z,2.28
2023-03-16T12:51:05.639Z,2.22
2023-03-16T12:53:53.313Z,2.25
2023-03-16T12:56:36.516Z,2.20
2023-03-16T12:59:06.082Z,2.08
2023-03-16T13:01:44.308Z,2.10
2023-03-16T13:04:20.077Z,2.20
2023-03-16T13:09:25.404Z,1.98
2023-03-16T13:11:53.317Z,2.20
2023-03-16T13:14:41.897Z,2.05
2023-03-16T13:17:20.522Z,2.38
2023-03-16T13:20:35.142Z,2.20
2023-03-16T13:23:18.190Z,2.80
2023-03-16T13:26:06.736Z,1.80
2023-03-16T13:28:37.651Z,2.78
2023-03-16T13:31:20.927Z,1.83
2023-03-16T13:33:49.706Z,1.90
2023-03-16T13:36:17.669Z,1.80
2023-03-16T13:38:56.092Z,1.92
2023-03-16T13:41:23.418Z,2.10
2023-03-16T13:43:50.519Z,2.78
2023-03-16T13:46:22.401Z,2.05
2023-03-16T13:48:51.281Z,3.25
2023-03-16T13:51:22.763Z,1.83
2023-03-16T13:53:51.023Z,2.35
2023-03-16T13:56:23.980Z,2.28
2023-03-16T13:58:53.809Z,1.90
2023-03-16T14:01:29.750Z,2.58
2023-03-16T14:04:08.602Z,2.05
2023-03-16T14:06:36.799Z,2.17
2023-03-16T14:09:14.132Z,2.93
2023-03-16T14:11:44.160Z,2.28
2023-03-16T14:14:29.347Z,2.08
2023-03-16T14:17:10.593Z,2.10
2023-03-16T14:20:06.748Z,1.90
2023-03-16T14:22:37.776Z,1.95
2023-03-16T14:25:06.662Z,2.47
2023-03-16T14:27:39.767Z,1.90
2023-03-16T14:30:33.069Z,1.88
2023-03-16T14:33:04.277Z,1.70
2023-03-16T14:35:43.662Z,2.17
2023-03-16T14:38:36.268Z,2.15
2023-03-16T14:41:07.641Z,3.13
2023-03-16T14:43:39.100Z,1.60
2023-03-16T14:46:08.052Z,2.50
2023-03-16T14:48:36.201Z,1.85
2023-03-16T14:51:04.445Z,2.13
2023-03-16T14:53:32.020Z,1.92
2023-03-16T14:55:59.902Z,1.65
2023-03-16T14:58:27.044Z,2.22
2023-03-16T15:00:55.171Z,1.80
2023-03-16T15:03:33.052Z,1.50
2023-03-16T15:06:01.410Z,1.52
2023-03-16T15:08:33.902Z,2.72
2023-03-16T15:11:08.367Z,1.63
2023-03-16T15:13:41.553Z,2.30
2023-03-16T15:16:14.087Z,1.25
2023-03-16T15:18:42.708Z,1.75
2023-03-16T15:21:21.203Z,2.20
2023-03-16T15:23:49.172Z,2.20
2023-03-16T15:26:24.559Z,1.75
2023-03-16T15:28:52.651Z,1.35
2023-03-16T15:31:20.077Z,1.80
2023-03-16T15:33:47.341Z,1.58
2023-03-16T15:36:22.771Z,2.05
2023-03-16T15:38:53.430Z,1.63
2023-03-16T15:41:21.375Z,2.08
2023-03-16T15:43:48.508Z,1.80
2023-03-16T15:46:16.582Z,1.63
2023-03-16T15:48:44.480Z,1.67
2023-03-16T15:51:14.194Z,2.03
2023-03-16T15:53:47.938Z,1.60
2023-03-16T15:56:18.638Z,2.28
2023-03-16T15:58:47.644Z,1.58
2023-03-16T16:01:26.812Z,1.38
2023-03-16T16:03:56.136Z,1.40
2023-03-16T16:06:24.272Z,1.30
2023-03-16T16:08:51.590Z,1.48
2023-03-16T16:11:26.489Z,1.45
2023-03-16T16:13:56.804Z,1.30
2023-03-16T16:16:29.075Z,1.23
2023-03-16T16:18:56.983Z,1.17
2023-03-16T16:21:29.122Z,0.90
2023-03-16T16:23:56.909Z,1.98
2023-03-16T16:26:49.852Z,1.10
2023-03-16T16:29:23.162Z,1.45
2023-03-16T16:31:51.799Z,1.20
2023-03-16T16:34:24.465Z,1.83
2023-03-16T16:36:52.439Z,1.10
2023-03-16T16:39:20.004Z,1.90
2023-03-16T16:41:54.507Z,1.52
2023-03-16T16:44:25.610Z,1.55
2023-03-16T16:46:53.761Z,1.95
2023-03-16T16:49:30.726Z,1.23
2023-03-16T16:51:58.936Z,1.70
2023-03-16T16:54:30.168Z,1.00
2023-03-16T16:56:59.840Z,1.48
2023-03-16T16:59:32.406Z,1.13
2023-03-16T17:02:02.124Z,1.52
2023-03-16T17:04:30.076Z,1.23
2023-03-16T17:07:02.005Z,1.20
2023-03-16T17:09:30.721Z,1.80
2023-03-16T17:12:02.141Z,1.75
2023-03-16T17:14:31.141Z,1.88
2023-03-16T17:17:04.748Z,1.48
2023-03-16T17:19:32.851Z,1.55
2023-03-16T17:22:00.119Z,0.90
2023-03-16T17:24:28.815Z,1.10
2023-03-16T17:26:59.340Z,1.40
2023-03-16T17:29:32.035Z,1.38
2023-03-16T17:32:17.144Z,1.73
2023-03-16T17:34:44.258Z,1.30
2023-03-16T17:37:18.275Z,1.40
2023-03-16T17:39:46.078Z,1.20
2023-03-16T17:42:19.014Z,1.00
2023-03-16T17:44:49.429Z,1.00
2023-03-16T17:47:23.859Z,1.13
2023-03-16T17:49:51.888Z,1.25
2023-03-16T17:52:23.558Z,1.77
2023-03-16T17:54:52.773Z,1.42
2023-03-16T17:57:27.397Z,1.33
2023-03-16T17:59:55.579Z,1.65
2023-03-16T18:02:54.149Z,1.67
2023-03-16T18:05:31.660Z,1.58
2023-03-16T18:08:25.752Z,1.35
2023-03-16T18:11:02.777Z,1.70
2023-03-16T18:13:36.460Z,1.58
2023-03-16T18:16:05.883Z,1.27
2023-03-16T18:18:37.347Z,1.55
2023-03-16T18:21:05.515Z,1.42
2023-03-16T18:23:35.860Z,0.95
2023-03-16T18:26:04.024Z,1.30
2023-03-16T18:28:32.371Z,1.48
2023-03-16T18:31:00.641Z,1.10
2023-03-16T18:33:33.734Z,1.73
2023-03-16T18:36:10.409Z,1.33
2023-03-16T18:38:41.012Z,1.90
2023-03-16T18:41:27.540Z,1.65
2023-03-16T18:43:58.902Z,1.63
2023-03-16T18:46:30.952Z,1.40
2023-03-16T18:49:05.165Z,2.17
2023-03-16T18:51:32.279Z,2.33
2023-03-16T18:53:59.734Z,1.77
2023-03-16T18:56:28.892Z,1.50
2023-03-16T18:58:57.113Z,1.73
2023-03-16T19:01:30.772Z,2.08
2023-03-16T19:04:00.705Z,2.40
2023-03-16T19:06:34.845Z,2.28
2023-03-16T19:09:28.021Z,2.60
2023-03-16T19:11:55.785Z,2.60
2023-03-16T19:14:31.462Z,2.72
2023-03-16T19:16:59.211Z,1.95
2023-03-16T19:19:27.368Z,2.50
2023-03-16T19:22:00.940Z,3.88
2023-03-16T19:24:32.544Z,2.58
2023-03-16T19:26:59.853Z,2.53
2023-03-16T19:29:33.706Z,2.33
2023-03-16T19:32:01.455Z,1.88
2023-03-16T19:34:29.128Z,2.40
2023-03-16T19:36:56.357Z,2.20
2023-03-16T19:39:23.429Z,2.08
2023-03-16T19:41:57.624Z,2.15
2023-03-16T19:44:27.549Z,2.20
2023-03-16T19:46:55.200Z,2.40
2023-03-16T19:49:26.115Z,2.47
2023-03-16T19:51:55.213Z,2.33
2023-03-16T19:54:29.622Z,2.15
2023-03-16T19:57:00.112Z,2.92
2023-03-16T19:59:32.030Z,2.20
2023-03-16T20:01:59.610Z,3.03
2023-03-16T20:04:27.915Z,4.32
2023-03-16T20:06:55.411Z,2.72
2023-03-16T20:09:22.770Z,2.78
2023-03-16T20:11:50.373Z,2.60
2023-03-16T20:14:33.067Z,2.63
2023-03-16T20:17:01.686Z,3.08
2023-03-16T20:19:29.538Z,2.60
2023-03-16T20:21:56.511Z,4.28
2023-03-16T20:24:24.531Z,3.25
2023-03-16T20:26:53.563Z,2.55
2023-03-16T20:29:31.593Z,2.92
2023-03-16T20:31:59.856Z,2.55
2023-03-16T20:34:31.254Z,2.88
2023-03-16T20:36:59.142Z,2.78
2023-03-16T20:39:26.533Z,2.55
2023-03-16T20:41:53.775Z,3.63
2023-03-16T20:44:25.296Z,3.28
2023-03-16T20:46:52.612Z,2.88
2023-03-16T20:49:22.599Z,2.63
2023-03-16T20:51:52.577Z,3.00
2023-03-16T20:54:20.520Z,2.70
2023-03-16T20:56:48.099Z,2.65
2023-03-16T20:59:24.676Z,2.45
2023-03-16T21:01:54.564Z,2.88
2023-03-16T21:04:27.620Z,3.20
2023-03-16T21:06:57.745Z,3.25
2023-03-16T21:09:24.955Z,3.33
2023-03-16T21:11:52.093Z,3.60
2023-03-16T21:14:23.345Z,2.60
2023-03-16T21:16:51.500Z,2.78
2023-03-16T21:19:23.966Z,2.60
2023-03-16T21:21:51.391Z,2.90
2023-03-16T21:24:18.478Z,3.20
2023-03-16T21:26:47.510Z,2.53
2023-03-16T21:29:21.292Z,2.22
2023-03-16T21:31:48.627Z,2.70
2023-03-16T21:34:29.405Z,2.85
2023-03-16T21:36:56.338Z,2.92
2023-03-16T21:39:25.254Z,3.88
2023-03-16T21:41:53.559Z,2.38
2023-03-16T21:44:20.809Z,2.50
2023-03-16T21:46:47.958Z,2.38
2023-03-16T21:49:15.975Z,3.45
2023-03-16T21:51:43.377Z,2.25
2023-03-16T21:54:17.926Z,2.72
2023-03-16T21:56:45.947Z,2.70
2023-03-16T21:59:13.315Z,2.15
2023-03-16T22:01:54.686Z,2.40
2023-03-16T22:04:28.560Z,2.47
2023-03-16T22:06:55.730Z,2.70
2023-03-16T22:09:24.920Z,2.40
2023-03-16T22:11:51.994Z,2.05
2023-03-16T22:14:18.970Z,3.00
2023-03-16T22:16:46.009Z,3.28
2023-03-16T22:19:14.673Z,2.42
2023-03-16T22:21:44.497Z,2.90
2023-03-16T22:24:18.755Z,1.92
2023-03-16T22:26:46.836Z,1.95
2023-03-16T22:29:26.595Z,2.58
2023-03-16T22:32:04.186Z,2.70
2023-03-16T22:34:42.141Z,1.98
2023-03-16T22:37:13.764Z,2.78
2023-03-16T22:39:41.004Z,2.20
2023-03-16T22:42:37.101Z,2.00
2023-03-16T22:45:23.919Z,2.63
2023-03-16T22:47:52.246Z,2.35
2023-03-16T22:50:21.970Z,2.08
2023-03-16T22:52:51.956Z,2.25
2023-03-16T22:55:25.054Z,2.65
2023-03-16T22:58:04.045Z,2.25
2023-03-16T23:00:31.436Z,2.70
2023-03-16T23:02:58.981Z,2.88
2023-03-16T23:05:29.407Z,3.17
2023-03-16T23:08:00.351Z,2.10
2023-03-16T23:10:28.529Z,2.10
2023-03-16T23:12:56.506Z,2.30
2023-03-16T23:15:28.519Z,2.28
2023-03-16T23:17:56.107Z,1.92
2023-03-16T23:20:30.065Z,1.80
2023-03-16T23:22:57.345Z,2.00
2023-03-16T23:25:24.914Z,2.15
2023-03-16T23:27:52.682Z,2.10
2023-03-16T23:30:24.466Z,2.30
2023-03-16T23:32:54.478Z,2.13
2023-03-16T23:35:28.973Z,2.00
2023-03-16T23:37:56.321Z,2.25
2023-03-16T23:40:26.480Z,2.08
2023-03-16T23:42:57.258Z,1.75
2023-03-16T23:45:46.114Z,2.30
2023-03-16T23:48:19.469Z,2.22
2023-03-16T23:50:50.087Z,1.52
2023-03-16T23:53:19.031Z,1.70
2023-03-16T23:55:47.380Z,1.80
2023-03-16T23:58:16.189Z,1.90
